createdAt,value
2022-11-21T00:01:26.648Z,1.88
2022-11-21T00:03:28.396Z,1.50
2022-11-21T00:05:31.127Z,1.38
2022-11-21T00:07:32.974Z,1.67
2022-11-21T00:09:36.882Z,2.25
2022-11-21T00:11:38.575Z,1.77
2022-11-21T00:13:40.413Z,3.10
2022-11-21T00:15:42.307Z,1.60
2022-11-21T00:17:43.992Z,1.92
2022-11-21T00:19:45.727Z,1.73
2022-11-21T00:21:47.422Z,1.45
2022-11-21T00:23:49.251Z,1.77
2022-11-21T00:25:51.039Z,2.38
2022-11-21T00:27:53.269Z,2.28
2022-11-21T00:29:55.028Z,2.08
2022-11-21T00:31:56.767Z,1.42
2022-11-21T00:33:58.667Z,1.95
2022-11-21T00:36:09.040Z,1.60
2022-11-21T00:38:10.793Z,2.45
2022-11-21T00:40:12.744Z,1.83
2022-11-21T00:42:14.435Z,1.27
2022-11-21T00:44:16.152Z,1.08
2022-11-21T00:46:17.870Z,1.10
2022-11-21T00:48:19.621Z,1.15
2022-11-21T00:50:21.317Z,2.53
2022-11-21T00:52:23.009Z,1.60
2022-11-21T00:54:25.036Z,1.60
2022-11-21T00:56:26.960Z,1.40
2022-11-21T00:58:28.746Z,1.58
2022-11-21T01:00:30.572Z,1.92
2022-11-21T01:02:32.945Z,1.50
2022-11-21T01:04:35.511Z,2.00
2022-11-21T01:06:40.538Z,1.80
2022-11-21T01:08:43.755Z,1.23
2022-11-21T01:10:45.540Z,2.08
2022-11-21T01:12:47.299Z,1.52
2022-11-21T01:14:49.327Z,1.58
2022-11-21T01:16:51.255Z,1.33
2022-11-21T01:18:53.181Z,1.20
2022-11-21T01:20:55.005Z,1.48
2022-11-21T01:22:56.720Z,1.27
2022-11-21T01:24:58.468Z,1.20
2022-11-21T01:27:00.220Z,1.40
2022-11-21T01:29:01.892Z,1.08
2022-11-21T01:31:23.046Z,1.00
2022-11-21T01:33:24.757Z,1.20
2022-11-21T01:35:26.475Z,1.23
2022-11-21T01:37:28.251Z,1.25
2022-11-21T01:39:30.010Z,1.63
2022-11-21T01:41:42.485Z,1.60
2022-11-21T01:43:44.702Z,1.30
2022-11-21T01:46:24.447Z,1.20
2022-11-21T01:48:36.626Z,1.40
2022-11-21T01:50:38.364Z,1.50
2022-11-21T01:52:40.124Z,1.63
2022-11-21T01:54:43.344Z,1.30
2022-11-21T01:56:47.317Z,2.05
2022-11-21T01:58:49.586Z,1.35
2022-11-21T02:00:51.882Z,1.40
2022-11-21T02:02:56.320Z,1.63
2022-11-21T02:04:58.301Z,1.27
2022-11-21T02:07:02.534Z,1.08
2022-11-21T02:09:05.194Z,1.88
2022-11-21T02:11:10.207Z,1.42
2022-11-21T02:13:14.960Z,1.50
2022-11-21T02:15:18.071Z,1.70
2022-11-21T02:17:19.882Z,1.95
2022-11-21T02:19:30.175Z,1.35
2022-11-21T02:21:57.263Z,1.65
2022-11-21T02:24:07.195Z,1.33
2022-11-21T02:26:09.123Z,1.67
2022-11-21T02:28:16.335Z,1.42
2022-11-21T02:30:18.477Z,1.40
2022-11-21T02:32:33.375Z,1.30
2022-11-21T02:34:35.178Z,1.40
2022-11-21T02:36:43.176Z,1.00
2022-11-21T02:38:44.935Z,1.33
2022-11-21T02:41:02.359Z,1.50
2022-11-21T02:43:23.914Z,0.95
2022-11-21T02:45:30.881Z,1.05
2022-11-21T02:47:34.589Z,1.30
2022-11-21T02:50:12.693Z,1.30
2022-11-21T02:52:14.390Z,1.20
2022-11-21T02:54:16.144Z,1.85
2022-11-21T02:56:17.930Z,1.00
2022-11-21T02:58:20.172Z,1.02
2022-11-21T03:00:22.392Z,1.20
2022-11-21T03:02:24.147Z,0.77
2022-11-21T03:04:27.043Z,1.25
2022-11-21T03:06:29.013Z,1.13
2022-11-21T03:08:30.725Z,1.10
2022-11-21T03:10:32.564Z,1.27
2022-11-21T03:12:36.949Z,1.50
2022-11-21T03:14:38.772Z,1.08
2022-11-21T03:16:40.502Z,1.00
2022-11-21T03:18:42.208Z,0.90
2022-11-21T03:20:43.936Z,1.10
2022-11-21T03:22:45.761Z,1.15
2022-11-21T03:24:47.551Z,1.10
2022-11-21T03:26:49.329Z,1.02
2022-11-21T03:28:51.013Z,0.88
2022-11-21T03:30:52.718Z,1.15
2022-11-21T03:32:57.680Z,1.00
2022-11-21T03:34:59.363Z,1.52
2022-11-21T03:37:01.150Z,0.93
2022-11-21T03:39:03.390Z,1.45
2022-11-21T03:41:06.392Z,1.38
2022-11-21T03:43:10.765Z,0.93
2022-11-21T03:45:12.493Z,1.00
2022-11-21T03:47:14.253Z,1.10
2022-11-21T03:49:16.913Z,0.95
2022-11-21T03:51:19.355Z,1.30
2022-11-21T03:53:21.084Z,1.10
2022-11-21T03:55:22.826Z,1.05
2022-11-21T03:57:24.500Z,1.00
2022-11-21T03:59:26.529Z,1.38
2022-11-21T04:01:32.387Z,0.85
2022-11-21T04:03:37.063Z,1.15
2022-11-21T04:05:38.860Z,1.10
2022-11-21T04:07:40.615Z,1.33
2022-11-21T04:09:42.336Z,1.00
2022-11-21T04:11:44.077Z,1.00
2022-11-21T04:13:45.764Z,1.33
2022-11-21T04:15:47.543Z,1.10
2022-11-21T04:17:49.283Z,1.60
2022-11-21T04:19:50.992Z,1.48
2022-11-21T04:21:52.706Z,1.85
2022-11-21T04:23:54.435Z,2.47
2022-11-21T04:25:56.411Z,1.50
2022-11-21T04:27:59.117Z,1.35
2022-11-21T04:30:00.844Z,2.13
2022-11-21T04:32:02.553Z,1.60
2022-11-21T04:34:04.402Z,1.75
2022-11-21T04:36:07.804Z,2.15
2022-11-21T04:38:09.703Z,1.80
2022-11-21T04:40:12.704Z,1.92
2022-11-21T04:42:14.518Z,1.58
2022-11-21T04:44:16.361Z,2.53
2022-11-21T04:46:18.593Z,2.80
2022-11-21T04:48:20.421Z,1.73
2022-11-21T04:50:22.391Z,1.88
2022-11-21T04:52:24.442Z,2.70
2022-11-21T04:54:26.574Z,1.40
2022-11-21T04:56:28.569Z,2.03
2022-11-21T04:58:30.337Z,1.45
2022-11-21T05:00:32.158Z,1.42
2022-11-21T05:02:34.070Z,1.33
2022-11-21T05:04:35.929Z,1.42
2022-11-21T05:06:37.615Z,1.40
2022-11-21T05:08:39.383Z,1.77
2022-11-21T05:10:59.933Z,1.60
2022-11-21T05:13:23.276Z,1.00
2022-11-21T05:15:25.609Z,1.60
2022-11-21T05:17:30.502Z,1.75
2022-11-21T05:19:32.295Z,1.60
2022-11-21T05:21:34.025Z,1.55
2022-11-21T05:23:35.974Z,1.67
2022-11-21T05:25:37.878Z,1.70
2022-11-21T05:27:39.697Z,1.90
2022-11-21T05:29:41.488Z,1.95
2022-11-21T05:31:43.220Z,1.63
2022-11-21T05:33:44.947Z,1.73
2022-11-21T05:35:46.907Z,1.30
2022-11-21T05:37:48.662Z,1.58
2022-11-21T05:39:50.665Z,1.48
2022-11-21T05:41:53.923Z,1.92
2022-11-21T05:43:57.981Z,1.58
2022-11-21T05:45:59.877Z,1.50
2022-11-21T05:48:01.723Z,1.38
2022-11-21T05:50:03.885Z,2.13
2022-11-21T05:52:05.636Z,2.80
2022-11-21T05:54:07.358Z,1.33
2022-11-21T05:56:10.875Z,1.42
2022-11-21T05:58:12.933Z,1.42
2022-11-21T06:00:15.488Z,1.60
2022-11-21T06:02:35.968Z,2.50
2022-11-21T06:04:38.029Z,1.95
2022-11-21T06:06:39.850Z,1.50
2022-11-21T06:08:47.025Z,2.58
2022-11-21T06:10:49.025Z,1.60
2022-11-21T06:12:50.976Z,1.95
2022-11-21T06:14:52.921Z,1.90
2022-11-21T06:16:54.773Z,2.30
2022-11-21T06:18:58.646Z,2.25
2022-11-21T06:21:05.886Z,1.83
2022-11-21T06:23:08.108Z,1.92
2022-11-21T06:25:10.308Z,1.48
2022-11-21T06:27:11.959Z,2.17
2022-11-21T06:29:13.855Z,1.95
2022-11-21T06:31:16.664Z,1.30
2022-11-21T06:33:19.156Z,1.70
2022-11-21T06:35:21.024Z,1.98
2022-11-21T06:37:23.441Z,1.83
2022-11-21T06:39:25.232Z,2.47
2022-11-21T06:41:30.368Z,1.70
2022-11-21T06:43:32.212Z,1.83
2022-11-21T06:45:34.174Z,1.80
2022-11-21T06:47:36.750Z,1.60
2022-11-21T06:49:38.631Z,1.08
2022-11-21T06:51:40.619Z,1.63
2022-11-21T06:53:42.702Z,1.50
2022-11-21T06:55:44.743Z,1.65
2022-11-21T06:57:46.764Z,1.45
2022-11-21T06:59:48.827Z,1.23
2022-11-21T07:01:50.649Z,1.20
2022-11-21T07:03:53.475Z,1.10
2022-11-21T07:05:58.695Z,1.30
2022-11-21T07:08:01.410Z,1.20
2022-11-21T07:10:04.302Z,2.00
2022-11-21T07:12:24.496Z,1.50
2022-11-21T07:14:27.272Z,1.80
2022-11-21T07:16:32.117Z,1.30
2022-11-21T07:18:34.459Z,1.65
2022-11-21T07:20:36.856Z,1.30
2022-11-21T07:22:38.808Z,2.33
2022-11-21T07:24:40.797Z,1.48
2022-11-21T07:26:42.864Z,1.20
2022-11-21T07:28:44.835Z,2.10
2022-11-21T07:30:47.106Z,1.52
2022-11-21T07:32:56.283Z,1.65
2022-11-21T07:34:58.485Z,2.40
2022-11-21T07:37:00.348Z,1.55
2022-11-21T07:39:03.048Z,0.90
2022-11-21T07:41:05.042Z,1.27
2022-11-21T07:43:10.867Z,1.95
2022-11-21T07:45:14.847Z,1.58
2022-11-21T07:47:16.870Z,2.67
2022-11-21T07:49:19.059Z,1.50
2022-11-21T07:51:21.177Z,1.80
2022-11-21T07:53:23.209Z,1.63
2022-11-21T07:55:25.720Z,1.20
2022-11-21T07:57:27.633Z,1.88
2022-11-21T07:59:29.779Z,1.23
2022-11-21T08:01:32.354Z,1.40
2022-11-21T08:03:35.174Z,3.90
2022-11-21T08:05:38.624Z,1.85
2022-11-21T08:07:40.956Z,1.23
2022-11-21T08:09:42.929Z,1.35
2022-11-21T08:11:45.070Z,1.50
2022-11-21T08:13:47.215Z,1.52
2022-11-21T08:15:49.294Z,1.10
2022-11-21T08:17:51.278Z,1.70
2022-11-21T08:19:53.408Z,1.60
2022-11-21T08:21:55.619Z,1.73
2022-11-21T08:23:57.642Z,1.48
2022-11-21T08:25:59.800Z,1.10
2022-11-21T08:28:02.953Z,1.75
2022-11-21T08:30:09.663Z,2.28
2022-11-21T08:32:11.333Z,1.80
2022-11-21T08:34:14.700Z,1.80
2022-11-21T08:36:37.082Z,1.75
2022-11-21T08:38:39.031Z,1.42
2022-11-21T08:40:40.896Z,1.70
2022-11-21T08:42:42.707Z,1.23
2022-11-21T08:44:44.503Z,1.60
2022-11-21T08:46:46.279Z,1.42
2022-11-21T08:48:47.999Z,1.20
2022-11-21T08:50:49.801Z,1.35
2022-11-21T08:52:51.489Z,1.40
2022-11-21T08:54:53.296Z,1.48
2022-11-21T08:56:55.045Z,1.42
2022-11-21T08:58:56.919Z,2.92
2022-11-21T09:01:00.400Z,1.75
2022-11-21T09:03:05.583Z,1.83
2022-11-21T09:05:07.733Z,1.42
2022-11-21T09:07:09.896Z,1.52
2022-11-21T09:09:11.837Z,1.13
2022-11-21T09:11:13.717Z,1.45
2022-11-21T09:13:15.647Z,1.67
2022-11-21T09:15:35.913Z,1.38
2022-11-21T09:17:59.143Z,1.20
2022-11-21T09:20:00.936Z,1.55
2022-11-21T09:22:02.685Z,3.05
2022-11-21T09:24:04.584Z,1.73
2022-11-21T09:26:06.309Z,1.42
2022-11-21T09:28:09.446Z,1.73
2022-11-21T09:30:11.743Z,1.45
2022-11-21T09:32:13.620Z,1.38
2022-11-21T09:34:15.527Z,1.33
2022-11-21T09:36:17.525Z,1.48
2022-11-21T09:38:23.816Z,1.50
2022-11-21T09:40:26.533Z,3.60
2022-11-21T09:42:44.285Z,1.95
2022-11-21T09:45:08.502Z,1.88
2022-11-21T09:47:27.566Z,1.33
2022-11-21T09:49:30.433Z,1.17
2022-11-21T09:51:32.479Z,1.20
2022-11-21T09:53:37.880Z,2.03
2022-11-21T09:55:43.246Z,1.73
2022-11-21T09:57:47.069Z,1.30
2022-11-21T09:59:49.184Z,1.75
2022-11-21T10:01:51.827Z,1.23
2022-11-21T10:03:54.051Z,2.22
2022-11-21T10:06:07.236Z,1.67
2022-11-21T10:08:32.421Z,1.50
2022-11-21T10:10:58.318Z,1.58
2022-11-21T10:13:31.596Z,1.60
2022-11-21T10:15:33.570Z,1.85
2022-11-21T10:18:13.043Z,2.10
2022-11-21T10:20:19.713Z,1.27
2022-11-21T10:22:43.727Z,1.10
2022-11-21T10:24:54.492Z,1.20
2022-11-21T10:26:59.932Z,2.03
2022-11-21T10:29:12.401Z,1.33
2022-11-21T10:31:16.116Z,1.40
2022-11-21T10:33:28.313Z,1.20
2022-11-21T10:35:36.881Z,2.05
2022-11-21T10:37:41.482Z,2.15
2022-11-21T10:39:44.739Z,1.45
2022-11-21T10:42:48.705Z,2.95
2022-11-21T10:45:09.553Z,2.03
2022-11-21T10:47:28.599Z,1.23
2022-11-21T10:49:33.885Z,1.45
2022-11-21T10:51:47.196Z,1.42
2022-11-21T10:54:22.193Z,1.63
2022-11-21T10:56:26.690Z,1.10
2022-11-21T10:58:59.759Z,1.98
2022-11-21T11:01:01.703Z,1.63
2022-11-21T11:03:06.938Z,1.33
2022-11-21T11:05:21.602Z,1.13
2022-11-21T11:07:26.693Z,1.60
2022-11-21T11:09:30.927Z,1.20
2022-11-21T11:11:33.511Z,1.40
2022-11-21T11:14:00.994Z,1.85
2022-11-21T11:16:07.188Z,1.80
2022-11-21T11:18:16.098Z,1.67
2022-11-21T11:20:35.428Z,1.52
2022-11-21T11:22:37.813Z,1.70
2022-11-21T11:24:44.475Z,1.25
2022-11-21T11:26:49.778Z,1.50
2022-11-21T11:28:52.138Z,1.52
2022-11-21T11:30:55.808Z,1.20
2022-11-21T11:32:57.652Z,1.42
2022-11-21T11:35:01.144Z,1.30
2022-11-21T11:37:13.326Z,1.15
2022-11-21T11:39:33.541Z,0.85
2022-11-21T11:42:40.357Z,1.35
2022-11-21T11:45:08.841Z,0.98
2022-11-21T11:47:30.785Z,1.65
2022-11-21T11:49:58.382Z,1.10
2022-11-21T11:52:02.940Z,1.48
2022-11-21T11:54:11.554Z,1.42
2022-11-21T11:56:26.438Z,1.70
2022-11-21T11:58:58.606Z,1.17
2022-11-21T12:01:11.232Z,1.50
2022-11-21T12:03:20.761Z,1.90
2022-11-21T12:05:27.616Z,1.42
2022-11-21T12:08:38.949Z,2.00
2022-11-21T12:10:14.475Z,1.60
2022-11-21T12:12:39.282Z,2.85
2022-11-21T12:15:21.556Z,1.95
2022-11-21T12:17:33.368Z,2.72
2022-11-21T12:19:36.793Z,1.48
2022-11-21T12:21:39.015Z,1.92
2022-11-21T12:23:40.952Z,1.42
2022-11-21T12:26:09.576Z,1.80
2022-11-21T12:28:28.369Z,2.35
2022-11-21T12:30:33.035Z,1.30
2022-11-21T12:32:58.755Z,1.65
2022-11-21T12:35:36.123Z,1.48
2022-11-21T12:37:48.697Z,1.95
2022-11-21T12:39:56.551Z,1.55
2022-11-21T12:42:27.605Z,1.95
2022-11-21T12:44:55.197Z,1.85
2022-11-21T12:47:54.831Z,1.27
2022-11-21T12:50:26.975Z,1.20
2022-11-21T12:52:53.138Z,2.05
2022-11-21T12:55:09.738Z,1.17
2022-11-21T12:57:14.227Z,1.17
2022-11-21T12:59:16.844Z,2.00
2022-11-21T13:01:30.810Z,1.27
2022-11-21T13:03:42.526Z,1.33
2022-11-21T13:05:47.695Z,1.17
2022-11-21T13:07:50.129Z,1.65
2022-11-21T13:09:54.149Z,1.52
2022-11-21T13:12:04.088Z,1.52
2022-11-21T13:14:28.049Z,1.73
2022-11-21T13:16:38.607Z,2.47
2022-11-21T13:18:48.599Z,1.73
2022-11-21T13:20:52.132Z,2.15
2022-11-21T13:23:08.129Z,1.40
2022-11-21T13:25:12.101Z,1.40
2022-11-21T13:27:38.422Z,1.45
2022-11-21T13:30:06.795Z,2.03
2022-11-21T13:32:41.512Z,1.77
2022-11-21T13:34:43.671Z,1.38
2022-11-21T13:36:46.183Z,1.40
2022-11-21T13:39:08.459Z,2.20
2022-11-21T13:41:30.104Z,1.60
2022-11-21T13:43:34.067Z,2.33
2022-11-21T13:45:45.538Z,1.90
2022-11-21T13:48:10.246Z,1.65
2022-11-21T13:50:24.064Z,1.50
2022-11-21T13:52:36.091Z,2.75
2022-11-21T13:55:08.049Z,1.98
2022-11-21T13:57:32.822Z,1.90
2022-11-21T13:59:59.040Z,1.20
2022-11-21T14:02:19.717Z,1.45
2022-11-21T14:04:44.848Z,1.33
2022-11-21T14:06:48.258Z,1.00
2022-11-21T14:09:24.119Z,1.70
2022-11-21T14:11:39.336Z,1.48
2022-11-21T14:13:47.156Z,1.63
2022-11-21T14:16:13.499Z,1.35
2022-11-21T14:18:25.606Z,1.27
2022-11-21T14:20:51.676Z,2.50
2022-11-21T14:23:25.886Z,2.17
2022-11-21T14:25:49.277Z,1.80
2022-11-21T14:27:53.811Z,2.25
2022-11-21T14:29:55.821Z,1.90
2022-11-21T14:31:57.754Z,1.60
2022-11-21T14:33:59.556Z,2.05
2022-11-21T14:36:14.735Z,1.60
2022-11-21T14:38:16.527Z,1.30
2022-11-21T14:40:23.919Z,2.05
2022-11-21T14:42:35.097Z,1.50
2022-11-21T14:44:37.067Z,2.35
2022-11-21T14:46:40.840Z,1.80
2022-11-21T14:48:42.952Z,2.80
2022-11-21T14:50:44.760Z,2.28
2022-11-21T14:52:47.081Z,1.90
2022-11-21T14:57:26.402Z,1.40
2022-11-21T14:59:33.791Z,1.10
2022-11-21T15:01:35.551Z,1.98
2022-11-21T15:03:37.296Z,1.42
2022-11-21T15:06:08.829Z,1.55
2022-11-21T15:08:23.958Z,1.30
2022-11-21T15:10:30.555Z,2.53
2022-11-21T15:12:48.263Z,1.50
2022-11-21T15:15:00.820Z,1.50
2022-11-21T15:17:04.748Z,1.83
2022-11-21T15:19:10.608Z,1.33
2022-11-21T15:21:16.004Z,1.83
2022-11-21T15:23:28.603Z,1.48
2022-11-21T15:25:32.049Z,1.90
2022-11-21T15:27:34.431Z,2.28
2022-11-21T15:29:36.328Z,1.38
2022-11-21T15:31:40.726Z,1.58
2022-11-21T15:36:24.351Z,1.65
2022-11-21T15:38:33.399Z,2.22
2022-11-21T15:40:35.136Z,2.67
2022-11-21T15:42:37.644Z,1.52
2022-11-21T15:44:57.816Z,1.50
2022-11-21T15:46:59.566Z,2.03
2022-11-21T15:49:25.115Z,1.35
2022-11-21T15:52:09.265Z,1.60
2022-11-21T15:54:01.575Z,1.77
2022-11-21T15:56:03.912Z,1.42
2022-11-21T15:58:05.632Z,1.50
2022-11-21T16:00:08.513Z,1.60
2022-11-21T16:02:13.413Z,1.80
2022-11-21T16:04:15.333Z,1.65
2022-11-21T16:06:17.662Z,1.88
2022-11-21T16:08:19.484Z,2.05
2022-11-21T16:10:27.426Z,1.50
2022-11-21T16:12:29.386Z,2.70
2022-11-21T16:14:31.098Z,2.10
2022-11-21T16:16:43.719Z,2.55
2022-11-21T16:18:46.943Z,2.30
2022-11-21T16:20:48.925Z,2.03
2022-11-21T16:22:50.669Z,2.22
2022-11-21T16:24:52.330Z,1.60
2022-11-21T16:26:55.448Z,1.50
2022-11-21T16:28:58.312Z,2.00
2022-11-21T16:31:00.534Z,1.77
2022-11-21T16:33:02.650Z,1.25
2022-11-21T16:35:05.710Z,1.50
2022-11-21T16:37:07.881Z,1.65
2022-11-21T16:39:15.126Z,1.40
2022-11-21T16:41:21.078Z,1.90
2022-11-21T16:43:23.875Z,1.75
2022-11-21T16:45:30.056Z,1.52
2022-11-21T16:47:31.820Z,1.88
2022-11-21T16:49:33.535Z,1.50
2022-11-21T16:51:35.365Z,1.50
2022-11-21T16:53:37.097Z,1.65
2022-11-21T16:55:38.953Z,1.80
2022-11-21T16:57:42.430Z,2.67
2022-11-21T16:59:44.126Z,1.75
2022-11-21T17:01:47.400Z,2.03
2022-11-21T17:03:49.834Z,2.60
2022-11-21T17:06:00.988Z,1.90
2022-11-21T17:08:02.727Z,1.83
2022-11-21T17:10:04.667Z,2.08
2022-11-21T17:12:06.651Z,1.55
2022-11-21T17:14:08.593Z,2.08
2022-11-21T17:16:11.776Z,1.83
2022-11-21T17:18:13.744Z,1.70
2022-11-21T17:20:15.580Z,3.10
2022-11-21T17:22:24.643Z,1.83
2022-11-21T17:24:26.936Z,2.53
2022-11-21T17:26:30.121Z,1.75
2022-11-21T17:28:32.229Z,2.25
2022-11-21T17:30:35.447Z,2.42
2022-11-21T17:32:37.264Z,2.67
2022-11-21T17:34:39.473Z,2.33
2022-11-21T17:36:41.420Z,2.67
2022-11-21T17:38:43.959Z,3.33
2022-11-21T17:40:45.777Z,2.90
2022-11-21T17:42:47.534Z,2.03
2022-11-21T17:44:49.305Z,3.42
2022-11-21T17:46:51.100Z,3.53
2022-11-21T17:48:57.267Z,4.00
2022-11-21T17:51:00.406Z,2.75
2022-11-21T17:53:02.146Z,1.83
2022-11-21T17:55:04.077Z,2.42
2022-11-21T17:57:05.920Z,1.60
2022-11-21T17:59:07.959Z,1.80
2022-11-21T18:01:13.881Z,1.08
2022-11-21T18:03:15.665Z,1.65
2022-11-21T18:05:17.468Z,1.30
2022-11-21T18:07:19.386Z,1.63
2022-11-21T18:09:21.132Z,1.60
2022-11-21T18:11:23.083Z,1.58
2022-11-21T18:13:25.078Z,1.30
2022-11-21T18:15:26.790Z,1.98
2022-11-21T18:17:28.502Z,1.67
2022-11-21T18:19:30.282Z,1.95
2022-11-21T18:21:33.608Z,1.45
2022-11-21T18:23:36.017Z,1.23
2022-11-21T18:25:38.555Z,1.85
2022-11-21T18:27:40.296Z,1.23
2022-11-21T18:29:41.966Z,1.70
2022-11-21T18:31:44.194Z,1.40
2022-11-21T18:33:49.524Z,1.42
2022-11-21T18:35:51.272Z,1.58
2022-11-21T18:37:53.133Z,1.50
2022-11-21T18:39:54.817Z,1.60
2022-11-21T18:41:56.572Z,1.30
2022-11-21T18:44:00.679Z,1.33
2022-11-21T18:46:06.614Z,1.85
2022-11-21T18:48:08.811Z,2.92
2022-11-21T18:50:10.632Z,2.85
2022-11-21T18:52:12.276Z,3.15
2022-11-21T18:54:14.021Z,2.83
2022-11-21T18:56:15.992Z,2.50
2022-11-21T18:58:17.756Z,2.10
2022-11-21T19:00:19.710Z,2.28
2022-11-21T19:02:21.497Z,2.80
2022-11-21T19:04:23.583Z,3.22
2022-11-21T19:06:26.191Z,3.05
2022-11-21T19:08:28.239Z,2.15
2022-11-21T19:10:43.051Z,2.47
2022-11-21T19:12:45.322Z,3.53
2022-11-21T19:14:47.144Z,2.20
2022-11-21T19:16:48.906Z,2.17
2022-11-21T19:19:18.602Z,1.98
2022-11-21T19:21:15.125Z,2.15
2022-11-21T19:23:16.818Z,1.85
2022-11-21T19:25:18.505Z,1.77
2022-11-21T19:27:24.348Z,2.20
2022-11-21T19:29:26.353Z,1.65
2022-11-21T19:31:28.458Z,1.88
2022-11-21T19:33:31.536Z,3.67
2022-11-21T19:35:33.305Z,2.60
2022-11-21T19:37:35.078Z,2.50
2022-11-21T19:39:36.743Z,2.05
2022-11-21T19:41:38.635Z,3.25
2022-11-21T19:43:59.769Z,2.15
2022-11-21T19:46:03.434Z,2.15
2022-11-21T19:48:05.331Z,2.25
2022-11-21T19:50:07.424Z,1.95
2022-11-21T19:52:09.142Z,2.08
2022-11-21T19:54:13.074Z,1.73
2022-11-21T19:56:20.177Z,1.67
2022-11-21T19:58:22.211Z,1.15
2022-11-21T20:00:25.470Z,2.80
2022-11-21T20:02:27.204Z,2.17
2022-11-21T20:04:29.234Z,2.58
2022-11-21T20:06:41.570Z,2.78
2022-11-21T20:08:43.507Z,2.67
2022-11-21T20:10:45.161Z,2.08
2022-11-21T20:12:46.847Z,2.17
2022-11-21T20:14:48.531Z,2.35
2022-11-21T20:16:51.342Z,1.88
2022-11-21T20:18:55.387Z,2.50
2022-11-21T20:20:57.239Z,2.95
2022-11-21T20:22:58.987Z,4.38
2022-11-21T20:25:00.667Z,4.65
2022-11-21T20:27:02.365Z,5.10
2022-11-21T20:29:05.051Z,3.70
2022-11-21T20:31:09.395Z,3.05
2022-11-21T20:33:11.717Z,2.72
2022-11-21T20:35:13.668Z,2.63
2022-11-21T20:37:15.416Z,3.88
2022-11-21T20:39:18.167Z,4.28
2022-11-21T20:41:20.795Z,5.70
2022-11-21T20:43:22.472Z,4.05
2022-11-21T20:47:45.808Z,2.33
2022-11-21T20:49:47.588Z,2.50
2022-11-21T20:53:20.594Z,2.28
2022-11-21T20:54:12.972Z,2.20
2022-11-21T20:56:14.766Z,2.55
2022-11-21T20:58:16.655Z,2.25
2022-11-21T21:00:19.027Z,1.50
2022-11-21T21:02:20.843Z,1.63
2022-11-21T21:04:22.591Z,1.50
2022-11-21T21:06:24.550Z,1.40
2022-11-21T21:08:27.211Z,1.48
2022-11-21T21:10:37.335Z,1.33
2022-11-21T21:12:51.644Z,1.30
2022-11-21T21:14:53.422Z,1.30
2022-11-21T21:16:55.139Z,1.13
2022-11-21T21:18:57.197Z,1.45
2022-11-21T21:21:17.404Z,1.35
2022-11-21T21:23:19.331Z,1.00
2022-11-21T21:25:21.345Z,1.23
2022-11-21T21:27:23.066Z,1.20
2022-11-21T21:29:24.779Z,1.52
2022-11-21T21:31:27.433Z,2.08
2022-11-21T21:33:29.138Z,1.40
2022-11-21T21:35:30.825Z,1.35
2022-11-21T21:37:32.541Z,1.30
2022-11-21T21:39:34.390Z,1.42
2022-11-21T21:41:40.205Z,1.70
2022-11-21T21:43:42.006Z,1.67
2022-11-21T21:45:43.768Z,1.23
2022-11-21T21:47:45.512Z,1.38
2022-11-21T21:49:50.855Z,1.30
2022-11-21T21:51:52.678Z,1.15
2022-11-21T21:53:56.051Z,1.20
2022-11-21T21:55:59.769Z,1.10
2022-11-21T21:58:01.546Z,1.15
2022-11-21T22:00:03.527Z,1.27
2022-11-21T22:02:05.506Z,1.08
2022-11-21T22:04:07.344Z,1.33
2022-11-21T22:06:11.761Z,1.38
2022-11-21T22:08:13.465Z,1.33
2022-11-21T22:10:15.241Z,1.20
2022-11-21T22:12:17.161Z,0.98
2022-11-21T22:14:18.962Z,1.17
2022-11-21T22:16:20.927Z,1.02
2022-11-21T22:18:22.677Z,1.10
2022-11-21T22:20:24.382Z,0.88
2022-11-21T22:22:26.093Z,1.17
2022-11-21T22:24:27.949Z,1.27
2022-11-21T22:26:29.976Z,0.98
2022-11-21T22:28:31.738Z,1.10
2022-11-21T22:30:33.632Z,1.05
2022-11-21T22:32:35.476Z,1.20
2022-11-21T22:34:37.216Z,0.88
2022-11-21T22:36:38.981Z,1.00
2022-11-21T22:38:41.007Z,0.90
2022-11-21T22:40:43.042Z,1.20
2022-11-21T22:42:44.909Z,0.88
2022-11-21T22:44:46.765Z,0.90
2022-11-21T22:46:48.767Z,1.00
2022-11-21T22:48:50.875Z,1.08
2022-11-21T22:50:52.638Z,1.00
2022-11-21T22:52:54.458Z,0.98
2022-11-21T22:54:56.134Z,1.30
2022-11-21T22:56:57.939Z,0.93
2022-11-21T22:58:59.680Z,0.82
2022-11-21T23:01:07.498Z,0.95
2022-11-21T23:03:09.299Z,0.88
2022-11-21T23:05:11.121Z,1.00
2022-11-21T23:07:13.021Z,1.00
2022-11-21T23:09:14.828Z,0.80
2022-11-21T23:11:19.351Z,1.10
2022-11-21T23:13:21.145Z,0.90
2022-11-21T23:15:22.891Z,0.80
2022-11-21T23:17:24.639Z,1.10
2022-11-21T23:19:26.395Z,1.30
2022-11-21T23:21:28.155Z,0.80
2022-11-21T23:23:30.035Z,1.20
2022-11-21T23:25:31.731Z,1.00
2022-11-21T23:27:33.502Z,0.80
2022-11-21T23:29:35.190Z,0.93
2022-11-21T23:31:37.030Z,1.08
2022-11-21T23:33:38.980Z,0.98
2022-11-21T23:35:41.056Z,1.15
2022-11-21T23:37:42.774Z,1.00
2022-11-21T23:39:44.438Z,1.00
2022-11-21T23:41:46.243Z,0.75
2022-11-21T23:43:48.131Z,1.25
2022-11-21T23:45:53.774Z,1.17
2022-11-21T23:47:55.435Z,1.08
2022-11-21T23:49:57.335Z,0.82
2022-11-21T23:51:59.051Z,1.00
2022-11-21T23:54:00.753Z,1.10
2022-11-21T23:56:02.499Z,1.05
2022-11-21T23:58:04.310Z,1.42
